This is the latest recevied weather packets stored in our database for station/object M9XDX-WX. If no packets are shown the sender has not sent any weather packets the latest 10 day(s).
| Time | Temp. | Humidity | Pressure | Rain* | Wind** | Luminosity | Snow |
|---|---|---|---|---|---|---|---|
| 1777219203 | 20° C | 26% | 1022.1 hPa | 0 mm | - | 273 W/m² | - |
| 1777217403 | 20° C | 24% | 1022.3 hPa | 0 mm | - | 268 W/m² | - |
| 1777216203 | 20.56° C | 25% | 1022.2 hPa | 0 mm | - | 353 W/m² | - |
| 1777210203 | 19.44° C | 25% | 1022.9 hPa | 0 mm | - | 562 W/m² | - |
| 1777209603 | 19.44° C | 28% | 1022.9 hPa | 0 mm | - | 439 W/m² | - |
| 1777209003 | 19.44° C | 31% | 1023 hPa | 0 mm | - | 384 W/m² | - |
| 1777206740 | 18.89° C | 32% | 1022.9 hPa | 0 mm | - | 800 W/m² | - |
| 1777206003 | 18.33° C | 40% | 1023.1 hPa | 0 mm | - | 652 W/m² | - |
| 1777203740 | 17.22° C | 47% | 1023.5 hPa | 0 mm | - | 627 W/m² | - |
| 1777201938 | 16.11° C | 53% | 1023.6 hPa | 0 mm | - | 698 W/m² | - |
| 1777201203 | 16.11° C | 55% | 1023.5 hPa | 0 mm | - | 589 W/m² | - |
| 1777200603 | 15.56° C | 59% | 1023.5 hPa | 0 mm | - | 644 W/m² | - |
| 1777198803 | 13.89° C | 65% | 1023.6 hPa | 0 mm | - | 515 W/m² | - |
| 1777198203 | 13.89° C | 65% | 1023.6 hPa | 0 mm | - | 439 W/m² | - |
| 1777196403 | 13.33° C | 66% | 1023.6 hPa | 0 mm | - | 359 W/m² | - |
| 1777192803 | 11.67° C | 73% | 1023.8 hPa | 0 mm | - | 440 W/m² | - |
| 1777191003 | 10.56° C | 76% | 1023.8 hPa | 0 mm | - | 313 W/m² | - |
| 1777189203 | 9.44° C | 79% | 1023.8 hPa | 0 mm | - | 279 W/m² | - |
| 1777186337 | 8.33° C | 83% | 1023.4 hPa | 0 mm | - | 139 W/m² | - |
| 1777182603 | 8.33° C | 85% | 1023.1 hPa | 0 mm | - | 62 W/m² | - |
| 1777182003 | 7.78° C | 85% | 1023.2 hPa | 0 mm | - | 48 W/m² | - |
| 1777177203 | 7.78° C | 82% | 1022.4 hPa | 0 mm | - | 0 W/m² | - |
| 1777176003 | 7.78° C | 75% | 1022.3 hPa | 0 mm | - | 0 W/m² | - |
| 1777173603 | 8.33° C | 71% | 1022.2 hPa | 0 mm | - | 0 W/m² | - |
| 1777173003 | 8.33° C | 71% | 1022.1 hPa | 0 mm | - | 0 W/m² | - |
* Rain latest hour (hover to see other rain measurements)
** Current wind speed in m/s (hover to see current wind gust speed)